Agustín Moreno

Recruteur en chef - Atlético Tucumán
20 Nov 2027
Samedi
Processus

Personnalité

Adaptabilité (6) Ambition (2) Controverse (18) Loyauté (8) Pression (7) Professionnalisme (6) Sportivité (14) Tempérament (12)

Profil

Style d'entraînement Démocratique
Diplôme National B
Détermination 11
Gestion des joueurs 12
Motivation 10
Discipline 6
Satisfaction professionnelle
93%
Fatigue
0%
Rôle Recruteur en chef
Salaire 78.3K p/s
Contrat 14.03.2028

Performance

Comportement Bon
Efficacité de l'entraînement
30%
Développement des joueurs
55%
Prévention des blessures
60%
Mise en place tactique
40%

Événements récents

A participé à une réunion de recrutement maintenant
A participé à une réunion de recrutement maintenant
A participé à une réunion de recrutement 7j
A participé à une réunion de recrutement 7j
A évalué un joueur 7j
A évalué un joueur 7j
A évalué un joueur 14j
A évalué un joueur 14j

Suivi en cours

220
Joueur Club Statut Capacité Confiance Observé Dernière observation Dernier vote
Gustavo Albarracín Alavés Actif 118 / 134 40% 4 18.11.2027 -
Thiago Helguera Braga Actif 112 / 116 40% 2 18.11.2027 -
Sheriff Amuda Shooting Stars Actif 94 / 90 40% 4 16.11.2027 -
Ignacio Fernández Boston River Actif 91 / 100 40% 1 16.11.2027 -
Bautista Reinhardt Central Espanol Actif 74 / 86 40% 2 13.11.2027 -
Honest Ahanor Atalanta Actif 144 / 148 40% 1 13.11.2027 -
Felipe Faúndez O'Higgins Actif 108 / 106 40% 2 10.11.2027 -
Inti Borghetto Patronato Actif 90 / 106 40% 1 10.11.2027 -
Josh Nichols Tranmere Rovers Actif 133 / 139 40% 1 07.11.2027 -
Tiago Gordillo San Miguel Actif 84 / 91 40% 3 06.11.2027 -
David Asayure Lokomotivi Actif 94 / 94 40% 1 06.11.2027 -
Sebastián Flores Rayo Vallecano Actif 100 / 116 40% 1 05.11.2027 -
Juan Camilo Córdoba Deportivo Pereira Actif 96 / 85 40% 3 03.11.2027 -
Facundo Balatti Penarol Actif 110 / 117 40% 2 02.11.2027 -
Uche Jaguar Kwara United Actif 110 / 103 40% 1 02.11.2027 -
Tobías Ramírez Sevilla Actif 123 / 143 40% 3 01.11.2027 -
Sebastián Ramírez America de Cali Actif 110 / 110 40% 1 01.11.2027 -
Geanfranco Rodríguez Defensor Sporting Actif 97 / 89 40% 3 31.10.2027 -
Kevin Sotto Boston River Actif 88 / 94 40% 1 31.10.2027 -
Santiago Colidio Eibar Actif 97 / 115 40% 1 28.10.2027 -
Franco Marino Deportivo Maldonado Actif 76 / 94 40% 2 27.10.2027 -
Germán Barbas Penarol Actif 107 / 111 40% 1 27.10.2027 -
Ignacio Mujica Juventud Actif 96 / 105 40% 1 23.10.2027 -
Hosea Michael Remo Stars Actif 81 / 89 40% 1 22.10.2027 -
Felipe Obradovich Gimnasia La Plata Actif 111 / 109 40% 1 22.10.2027 -
Björn Hedlöf Helsingborg Actif 78 / 115 40% 1 21.10.2027 -
Tobías Andrada Betis Actif 113 / 124 40% 2 15.10.2027 -
Luis Otávio Toronto FC Actif 94 / 113 40% 1 15.10.2027 -
Óscar Hinojosa Metropolitanos Actif 90 / 84 40% 1 14.10.2027 -
Benicio Morales Veracruz Actif 100 / 86 40% 1 10.10.2027 -
Diego Cheuquepal Racing Actif 95 / 100 40% 1 09.10.2027 -
Agustín Medina Lanús Actif 113 / 122 40% 1 07.10.2027 -
Edmilson Herazo Deportivo Pereira Actif 102 / 91 40% 1 06.10.2027 -
Víctor Reyes Deportes Tolima Actif 90 / 100 40% 1 06.10.2027 -
Enzo Cardozo Virtus Entella Actif 125 / 108 40% 1 05.10.2027 -
Mateo Monserrat Ferro Carril Oeste Actif 92 / 97 55% 1 19.07.2027 -
Lautaro Lucero Ferro Carril Oeste Actif 95 / 107 55% 1 12.07.2027 -
Mateo Alcoba Albion Actif 72 / 83 40% 1 29.05.2027 -
Lorenzo De Leo Renate Actif 114 / 95 40% 6 28.05.2027 -
Senny Mayulu Paris Saint-Germain Actif 127 / 155 40% 1 28.05.2027 -
Miloš Jovičić Zabbar St. Patrick Actif 88 / 88 40% 7 27.05.2027 -
Abubakar Garba Nasarawa United Actif 97 / 86 40% 1 23.05.2027 -
Felix Mosquera Deportes Quindio Actif 102 / 104 40% 1 23.05.2027 -
Sindre Walle Egeli Nottingham Forest Actif 135 / 125 40% 2 21.05.2027 -
Joel Orlando Real Sociedad Actif 103 / 112 40% 1 21.05.2027 -
Gregorio Blanco Cobresal Actif 89 / 90 40% 3 19.05.2027 -
Ezekiel Kwame Alladoh Sheffield United Actif 133 / 131 40% 1 18.05.2027 -
Tiago Pucciarelli Alianza Lima Actif 88 / 100 40% 3 17.05.2027 -
George Brown Sheffield Wednesday Actif 104 / 111 40% 2 16.05.2027 -
Felipe Serrés Wanderers Actif 88 / 93 40% 1 16.05.2027 -
Daniel Murillo Atletico Venezuela Actif 81 / 83 40% 2 12.05.2027 -
Luca Bastilla Levante Actif 75 / 109 40% 3 11.05.2027 -
Iovan Roganovich Sportivo Trinidense Actif 87 / 94 40% 2 10.05.2027 -
Babis Kostoulas Aston Villa Actif 148 / 138 40% 3 10.05.2027 -
Cristian Peñate Barranquilla Actif 89 / 94 40% 2 07.05.2027 -
Sidiki Chérif Coventry City Actif 109 / 130 40% 7 06.05.2027 -
Wilmar Cordoba Valledupar Actif 99 / 95 40% 2 04.05.2027 -
Tobías Modlin Dorados Actif 84 / 75 40% 1 04.05.2027 -
Anthony da Costa Artigas Actif 81 / 82 40% 1 03.05.2027 -
Ichem Ferrah Pisa Actif 95 / 107 40% 3 02.05.2027 -
Lautaro Gutiérrez Girona Actif 87 / 100 40% 5 30.04.2027 -
Jeffrey Adjei Wa All Stars Actif 92 / 86 40% 3 26.04.2027 -
Luke Baartman Bidvest Wits Actif 106 / 121 40% 3 26.04.2027 -
Bautista Pereira Danubio Actif 98 / 92 40% 1 25.04.2027 -
Darlvin Yeboah Bechem United Actif 70 / 87 40% 2 24.04.2027 -
Tiziano Dornell Almagro Actif 109 / 119 40% 4 22.04.2027 -
Adama Goïta Remo Stars Actif 110 / 114 40% 3 15.04.2027 -
Yuval Ranon Vitesse Actif 91 / 85 40% 1 10.04.2027 -
Sunusi Audu New Edubiase United Actif 86 / 94 40% 1 08.04.2027 -
Facundo Martínez Montevideo City Torque Actif 81 / 98 40% 1 08.04.2027 -
Gustavo Ferreira Benfica Actif 64 / 90 40% 2 07.04.2027 -
Ricardo Solbes Getafe Actif 91 / 119 40% 3 06.04.2027 -
Roberto Iliev Slavia Sofia Actif 104 / 113 40% 2 03.04.2027 -
Ognjen Bondžulić Mladost Lucani Actif 99 / 119 40% 3 02.04.2027 -
Dramane Kamagaté USM Alger Actif 114 / 106 40% 2 25.03.2027 -
Alex Woiski Caracas Actif 80 / 104 40% 1 25.03.2027 -
Oumar Camara Vitoria Guimaraes Actif 109 / 145 40% 3 18.03.2027 -
Matías Pérez Queens Park Rangers Actif 79 / 88 40% 1 10.03.2027 -
Serge Daura Dynamo Douala Actif 82 / 91 40% 1 07.03.2027 -
Santiago Diez Deportivo Pereira Actif 91 / 84 40% 1 03.03.2027 -
Duvan Torres La Equidad Actif 86 / 89 40% 1 01.03.2027 -
Alan Torterolo Defensor Sporting Actif 93 / 102 40% 1 28.02.2027 -
Exequiel Mereles Nacional Actif 115 / 119 40% 1 13.02.2027 -
Stefanos Tzimas Brighton Actif 122 / 133 40% 1 09.02.2027 -
Volodymyr Mulyk Kryvbas Actif 83 / 80 40% 1 02.02.2027 -
Luciano Inverso Rentistas Actif 111 / 124 40% 2 01.02.2027 -
Nicolás Sumavil Platense Actif 131 / 125 40% 2 29.11.2026 -
Agustín Buffa Wanderers Actif 93 / 97 40% 2 25.11.2026 -
Emiliano González Almagro Actif 120 / 114 40% 1 25.11.2026 -
Nazareno Colombo Racing Club Actif 133 / 117 40% 1 25.11.2026 -
Mariano Gómez Ferencvaros Actif 141 / 128 40% 1 25.11.2026 -
Bento Lokomotiv Moscow Actif 137 / 138 40% 1 23.11.2026 -
Fran Vieites Exeter City Actif 108 / 129 40% 1 23.11.2026 -
Tadeo Allende Inter Miami CF Actif 130 / 118 40% 1 23.11.2026 -
Alejo Cruz Juventud Actif 114 / 124 40% 1 23.11.2026 -
Emiliano Márquez Central Espanol Actif 97 / 95 40% 2 21.11.2026 -
Lucas Machado Defensor Sporting Actif 104 / 103 40% 2 21.11.2026 -
Augusto Schott Talleres Actif 112 / 113 40% 1 21.11.2026 -
Matías Gómez Valencia Actif 112 / 117 40% 1 21.11.2026 -
Agustín Lastra Estudiantes Actif 116 / 107 40% 1 20.11.2026 -
Martín Sarrafiore O'Higgins Actif 109 / 112 40% 1 19.11.2026 -
Jordan Amissah Burton Albion Actif 84 / 109 40% 1 18.11.2026 -
Carl Rushworth Coventry City Actif 130 / 146 40% 3 16.11.2026 -
Nicolás Rossi Juventud Actif 108 / 102 40% 1 16.11.2026 -
Igor Nikić Lech Actif 104 / 111 40% 3 15.11.2026 -
Arijanet Murić Sassuolo Actif 139 / 151 40% 1 15.11.2026 -
Lautaro Petruchi Gimnasia y Esgrima Actif 108 / 114 40% 3 14.11.2026 -
Esteban Glellel Quilmes Actif 105 / 119 40% 2 13.11.2026 -
Facundo Cambeses Racing Club Actif 132 / 134 40% 3 13.11.2026 -
Franco Carretero Deportivo Lara Actif 95 / 103 40% 1 12.11.2026 -
Brais Méndez Columbus Crew Actif 156 / 161 40% 1 12.11.2026 -
Patrick Maswanganyi Orlando Pirates Actif 124 / 101 40% 1 12.11.2026 Plus d'infos
Mark Travers Everton Actif 139 / 140 40% 1 10.11.2026 -
Grégoire Coudert Burnley Actif 133 / 132 40% 3 09.11.2026 -
Daniel Iversen Preston Actif 124 / 141 40% 1 09.11.2026 -
Angel Zamudio CFR Cluj Actif 121 / 120 40% 2 08.11.2026 -
Gonzalo Falcón Cienciano Actif 113 / 113 40% 1 08.11.2026 -
Francisco Casanova Cerrito Actif 94 / 108 40% 3 07.11.2026 -
Josh Keeley Luton Town Actif 121 / 124 40% 1 07.11.2026 -
Esequiel Barco Spartak Moscow Actif 135 / 134 40% 1 06.11.2026 -
Pablo García Plaza Colonia Actif 104 / 115 40% 1 06.11.2026 -
Zacarías López Iquique Actif 108 / 100 40% 1 06.11.2026 -
Elias Hadaya Sandefjord Actif 131 / 103 40% 1 05.11.2026 -
Jonathan De Irastorza Levante Actif 111 / 133 40% 1 03.11.2026 -
Luciano Boggio Nacional Actif 131 / 121 40% 1 03.11.2026 -
Lucas Bruera Carabobo Actif 124 / 112 40% 2 01.11.2026 -
Diego Enríquez Sporting Cristal Actif 116 / 136 40% 2 31.10.2026 -
Hugo Gallardo Veracruz Actif 80 / 108 40% 2 31.10.2026 -
Ezequiel Cañete Huachipato Actif 126 / 119 40% 1 31.10.2026 -
Alex Luna Instituto Actif 129 / 128 40% 1 31.10.2026 -
Felipe Zenobio Tigre Actif 131 / 138 40% 2 29.10.2026 -
Luciano Jachfe Nueva Chicago Actif 120 / 122 40% 1 29.10.2026 -
Martín Ojeda Orlando City Actif 151 / 140 40% 1 29.10.2026 -
Alexis Cuello San Lorenzo Actif 133 / 119 40% 1 27.10.2026 -
Ángel Maciel Tacuarembo Actif 112 / 109 40% 1 25.10.2026 -
Nathan Trott Cardiff City Actif 132 / 118 40% 1 25.10.2026 -
Andrés Herrera Columbus Crew Actif 131 / 117 40% 2 23.10.2026 -
Laureano Martínez Talleres Actif 110 / 108 40% 1 23.10.2026 -
Luciano Acosta Agropecuario Argentino Actif 79 / 88 40% 1 23.10.2026 -
Matt Freese New York City Actif 114 / 130 40% 1 21.10.2026 -
Federico Bonansea San Martín SJ Actif 93 / 99 40% 2 18.10.2026 -
Juan Fernando Alfaro Olimpia Actif 113 / 116 40% 1 18.10.2026 -
Tobías Reinhart Universidad de Chile Actif 123 / 126 40% 1 18.10.2026 -
Pablo Ruiz Real Salt Lake Actif 138 / 123 40% 2 15.10.2026 -
Agustín Maidana San Marcos de Arica Actif 100 / 102 40% 1 15.10.2026 -
Tomás Ahumada Audax Italiano Actif 112 / 109 40% 2 13.10.2026 -
Murphy Cooper Plymouth Argyle Actif 103 / 100 40% 1 13.10.2026 -
Mauro Villar Cerro Actif 91 / 105 40% 2 12.10.2026 -
Facundo Coelli Sheffield Wednesday Actif 95 / 100 40% 1 12.10.2026 -
Rodrigo González Aldosivi Actif 128 / 121 40% 1 12.10.2026 -
Lucas Villagra Cultural Leonesa Actif 102 / 106 40% 1 09.10.2026 -
Leandro Lozano Boca Juniors Actif 126 / 133 40% 2 08.10.2026 -
Franco Petroli Lanús Actif 133 / 127 40% 1 08.10.2026 -
Nicolás Domínguez Nottingham Forest Actif 144 / 139 40% 1 08.10.2026 -
Aldo Pérez Guarani Actif 109 / 115 40% 2 06.10.2026 -
Agustín Quiroz Watford Actif 82 / 101 40% 2 06.10.2026 -
Erik de los Santos Racing Actif 113 / 118 40% 1 02.10.2026 -
Rômulo Tigres Actif 126 / 122 40% 1 02.10.2026 -
Andrés Gudiño Cruz Azul Actif 127 / 128 40% 3 30.09.2026 -
Tomás Lingua Burnley Actif 80 / 92 40% 1 30.09.2026 -
Nicolás Forastiero Deportivo Maldonado Actif 103 / 92 40% 3 29.09.2026 -
Dayne St. Clair Inter Miami CF Actif 113 / 125 40% 1 29.09.2026 -
Milton Valenzuela Atlas Actif 102 / 105 40% 2 28.09.2026 -
Diego Romero Universitario Actif 113 / 120 40% 1 28.09.2026 -
Diego Martinez La Equidad Actif 114 / 120 40% 1 28.09.2026 -
Lucas Di Yorio Santos Laguna Actif 112 / 119 40% 2 26.09.2026 -
Joaquín Silva Plaza Colonia Actif 101 / 108 40% 2 26.09.2026 -
Mauro Cachi Fenix Actif 101 / 99 40% 1 26.09.2026 -
Santiago Simón Toluca Actif 138 / 129 40% 2 24.09.2026 -
Facundo Vila Estudiantes Actif 100 / 101 40% 1 20.09.2026 -
Weibmar Asprilla Independiente Medellin Actif 105 / 105 40% 1 19.09.2026 -
Aldo Montes Tigres Actif 109 / 99 40% 1 18.09.2026 -
Tomás Escalante Plaza Colonia Actif 125 / 113 40% 2 17.09.2026 -
Nicolás Campisi Sportivo Luqueno Actif 114 / 122 40% 2 17.09.2026 -
Enzo Loiodice KAA Gent Actif 115 / 116 40% 1 17.09.2026 -
Víctor Cabezas Union Magdalena Actif 128 / 108 40% 1 17.09.2026 -
Edgar Elizalde Defensor Sporting Actif 121 / 118 40% 1 17.09.2026 -
Sebastián Meza Huracán Actif 128 / 118 40% 1 15.09.2026 -
Federico Losas Chacarita Juniors Actif 124 / 124 40% 1 15.09.2026 -
Sebastián Lentinelly Olimpia Actif 99 / 102 40% 1 11.09.2026 -
Juan Camilo Loaiza Llaneros Actif 93 / 100 40% 1 10.09.2026 -
Jaime Mora Envigado Actif 93 / 106 40% 1 10.09.2026 -
Andrés Samurio Tacuarembo Actif 102 / 112 40% 1 07.09.2026 -
James Pantemis Portland Timbers Actif 128 / 126 40% 1 07.09.2026 -
Mateo Rinaldi Danubio Actif 97 / 101 40% 3 06.09.2026 -
Agustín Aguirre Boston River Actif 97 / 97 40% 1 06.09.2026 -
Pablo Lara Pumas UNAM Actif 96 / 114 40% 1 06.09.2026 -
Agustín Requena Progreso Actif 105 / 111 40% 2 05.09.2026 -
Beycker Velásquez Zamora Actif 98 / 100 40% 3 04.09.2026 -
Enzo Vázquez Central Norte Actif 122 / 110 40% 1 04.09.2026 -
Agustín Venezia Iquique Actif 103 / 114 40% 1 04.09.2026 -
Agustín Palavecino Cruz Azul Actif 149 / 126 40% 1 04.09.2026 -
Martín Ginzo Deportivo Maldonado Actif 103 / 113 40% 1 31.08.2026 -
Matías Núñez Carabobo Actif 114 / 104 40% 1 29.08.2026 -
Omar Bertel America de Cali Actif 109 / 127 40% 1 29.08.2026 -
Adriano Freitas Deportivo Maldonado Actif 113 / 109 40% 1 26.08.2026 -
Carlos Caicedo La Equidad Actif 116 / 118 40% 1 25.08.2026 -
Ezequiel Bullaude Santos Laguna Actif 131 / 116 40% 1 25.08.2026 -
Facundo Velazco San Marcos de Arica Actif 113 / 104 40% 1 23.08.2026 -
Nicolás Garayalde Liverpool Montevideo Actif 117 / 106 40% 1 23.08.2026 -
Federico Varese Racing Actif 108 / 117 40% 3 21.08.2026 -
Brandon Álvarez Penarol Actif 73 / 96 40% 1 21.08.2026 -
Marco Espíndola Alianza Petrolera Actif 93 / 90 40% 1 19.08.2026 -
Sebastián Jaume Albion Actif 85 / 98 40% 1 18.08.2026 -
Emiliano Bermúdez Oriental Actif 87 / 85 40% 1 17.08.2026 -
Jhohan Romaña Leon Actif 139 / 127 40% 1 16.08.2026 -
Adonis Frías Atlas Actif 128 / 114 40% 1 16.08.2026 -
Reynaldo Fontalvo Real Cartagena Actif 89 / 93 40% 1 16.08.2026 -
David Agudelo Depor Actif 97 / 101 40% 1 13.08.2026 -
Renato Solís Sporting Cristal Actif 114 / 124 40% 1 12.08.2026 -
Nicolás Kozlovsky Oriental Actif 106 / 116 40% 1 10.08.2026 -
Williams Barlasina Fortaleza CEIF Actif 108 / 112 40% 1 08.08.2026 -
Lucas Verza Olimpia Actif 114 / 118 40% 1 07.08.2026 -
Ángel Espínola Sportivo Luqueno Actif 93 / 100 40% 1 06.08.2026 -
Gonzalo Crettaz NEC Actif 140 / 134 40% 1 06.08.2026 -
Ramiro Sordo Santos Laguna Actif 109 / 130 40% 1 05.08.2026 -
Agustín Cayetano Liverpool Montevideo Actif 97 / 111 40% 1 05.08.2026 -
Andres Duque Universitario Popayan Actif 98 / 114 40% 1 05.08.2026 -
David Fernández O'Higgins Actif 99 / 125 40% 1 04.08.2026 -
Daniel Castillo Barranquilla Actif 94 / 88 40% 1 04.08.2026 -